Billings, MT

6:28 AM MDT on October 01, 2014 (GMT -0600)
Billings Logan International | Change Station
CLOSE
Current Station
Airport
Location: Billings,
Elevation: 3570 ft
Nearby Weather Stations

Elev 3570 ft 45.81 °N, 108.54 °W | Updated 35 minutes ago

Mostly Cloudy
Mostly Cloudy
48 °F
Feels Like 48 °F
N
15
Wind Variable Wind from WNW

Today
High -- | Low -- °F
--% Chance of Precip.
Yesterday
High -- | Low -- °F
Precip. -- in
7:12 AM 6:53 PM
Waxing Crescent, 47% visible
Pressure 29.87 in
Visibility 10.0 miles
Clouds Mostly Cloudy 5000 ft
Mostly Cloudy 9500 ft
Dew Point 36 °F
Humidity 63%
Rainfall 0.00 in
Snow Depth 1 in , 0 in , 0 in
UV 0 out of 12
Pollen 3.00 out of 12
Air Quality Not available.
Flu Activity Not available.
METAR KBIL 011153Z 29013KT 10SM BKN050 BKN095 09/02 A2990 RMK AO2 SLP115 60000 T00890022 10117 20072 53014

More Conditions Fewer Conditions

Pressure 29.87 in
Visibility 10.0 miles
Clouds Mostly Cloudy 5000 ft
Mostly Cloudy 9500 ft
Dew Point 36 °F
Humidity 63%
Rainfall 0.00 in
Snow Depth 1 in , 0 in , 0 in
UV 0 out of 12
Pollen 3.00 out of 12
Air Quality Not available.
Flu Activity Not available.
METAR KBIL 011153Z 29013KT 10SM BKN050 BKN095 09/02 A2990 RMK AO2 SLP115 60000 T00890022 10117 20072 53014

More Conditions Fewer Conditions

10-Day Weather Forecast

Almanac

Astronomy

Oct. 01, 2014 Rise Set
Actual Time 7:12 AM MDT 6:53 PM MDT
Civil Twilight 6:42 AM MDT 7:23 PM MDT
Nautical Twilight 6:08 AM MDT 7:58 PM MDT
Astronomical Twilight 5:32 AM MDT 8:33 PM MDT
Moon 2:29 PM MDT No Moon Set
Length of Visible Light 12h 40m
Length of Day
11h 41m
Tomorrow will be 3m 11s shorter.
Waxing Crescent, 47% of the Moon is Illuminated
Today
Waxing Crescent
Oct 1
First Quarter
Oct 8
Full
Oct 15
Last Quarter
Oct 23
New

Today's Extremes

State Highs State Lows

Community

WunderPhotos

Upload Photos

1,757,916 photos uploaded!

Nearby

Snow Depth

Station Depth Elevation
Brackett Creek 1 in 7320 ft
Daisy Peak 0 in 7600 ft
Mount Lockhart 0 in 6400 ft
Many Glacier 0 in 4900 ft
Waldron 1 in 5600 ft

Earthquake Activity

City Distance Mag. Time & Date
No recent earthquake activity has been reported nearby.
Minimum magnitude displayed is 2.5.

Coastal Water Temperatures

Place Temperature
No Stations Reporting

Nearby Weather Stations